sensor_id;sensor_type;location;lat;lon;timestamp;P1;durP1;ratioP1;P2;durP2;ratioP2
2996;SDS011;1508;48.744;9.110;2022-10-22T00:00:54;1.90;;;0.80;;
2996;SDS011;1508;48.744;9.110;2022-10-22T00:03:40;1.90;;;0.80;;
2996;SDS011;1508;48.744;9.110;2022-10-22T00:06:26;2.35;;;0.80;;
2996;SDS011;1508;48.744;9.110;2022-10-22T00:09:12;3.30;;;0.90;;
2996;SDS011;1508;48.744;9.110;2022-10-22T00:11:58;2.17;;;0.80;;
2996;SDS011;1508;48.744;9.110;2022-10-22T00:14:45;3.00;;;0.80;;
2996;SDS011;1508;48.744;9.110;2022-10-22T00:17:31;2.10;;;0.70;;
2996;SDS011;1508;48.744;9.110;2022-10-22T00:20:16;1.60;;;0.80;;
2996;SDS011;1508;48.744;9.110;2022-10-22T00:23:02;1.40;;;0.80;;
2996;SDS011;1508;48.744;9.110;2022-10-22T00:25:48;3.83;;;1.10;;
2996;SDS011;1508;48.744;9.110;2022-10-22T00:28:34;1.92;;;0.93;;
2996;SDS011;1508;48.744;9.110;2022-10-22T00:31:20;2.10;;;0.70;;
2996;SDS011;1508;48.744;9.110;2022-10-22T00:34:06;1.13;;;0.60;;
2996;SDS011;1508;48.744;9.110;2022-10-22T00:36:52;3.90;;;0.70;;
2996;SDS011;1508;48.744;9.110;2022-10-22T00:39:38;1.50;;;0.70;;
2996;SDS011;1508;48.744;9.110;2022-10-22T00:42:25;3.90;;;0.80;;
2996;SDS011;1508;48.744;9.110;2022-10-22T00:45:16;2.00;;;0.73;;
2996;SDS011;1508;48.744;9.110;2022-10-22T00:51:00;1.92;;;0.80;;
2996;SDS011;1508;48.744;9.110;2022-10-22T00:53:49;1.38;;;0.70;;
2996;SDS011;1508;48.744;9.110;2022-10-22T00:56:39;3.85;;;0.98;;
2996;SDS011;1508;48.744;9.110;2022-10-22T00:59:25;6.00;;;0.90;;
2996;SDS011;1508;48.744;9.110;2022-10-22T01:02:12;2.22;;;1.00;;
2996;SDS011;1508;48.744;9.110;2022-10-22T01:04:58;2.42;;;0.80;;
2996;SDS011;1508;48.744;9.110;2022-10-22T01:07:45;1.40;;;0.80;;
2996;SDS011;1508;48.744;9.110;2022-10-22T01:10:37;3.30;;;1.00;;
2996;SDS011;1508;48.744;9.110;2022-10-22T01:22:34;1.50;;;0.90;;
2996;SDS011;1508;48.744;9.110;2022-10-22T01:25:34;1.80;;;0.90;;
2996;SDS011;1508;48.744;9.110;2022-10-22T01:31:42;1.50;;;0.98;;
2996;SDS011;1508;48.744;9.110;2022-10-22T01:34:33;1.60;;;0.90;;
2996;SDS011;1508;48.744;9.110;2022-10-22T01:37:20;2.97;;;0.90;;
2996;SDS011;1508;48.744;9.110;2022-10-22T01:40:10;2.60;;;0.93;;
2996;SDS011;1508;48.744;9.110;2022-10-22T01:45:46;3.10;;;1.10;;
2996;SDS011;1508;48.744;9.110;2022-10-22T01:57:52;2.53;;;0.80;;
2996;SDS011;1508;48.744;9.110;2022-10-22T02:01:05;2.15;;;0.85;;
2996;SDS011;1508;48.744;9.110;2022-10-22T02:07:24;1.40;;;0.80;;
2996;SDS011;1508;48.744;9.110;2022-10-22T02:10:14;2.55;;;0.88;;
2996;SDS011;1508;48.744;9.110;2022-10-22T02:13:02;2.40;;;0.80;;
2996;SDS011;1508;48.744;9.110;2022-10-22T02:15:52;1.70;;;0.80;;
2996;SDS011;1508;48.744;9.110;2022-10-22T02:18:40;1.73;;;0.80;;
2996;SDS011;1508;48.744;9.110;2022-10-22T02:21:28;4.00;;;0.90;;
2996;SDS011;1508;48.744;9.110;2022-10-22T02:24:15;1.60;;;0.80;;
2996;SDS011;1508;48.744;9.110;2022-10-22T02:27:12;3.03;;;1.00;;
2996;SDS011;1508;48.744;9.110;2022-10-22T02:30:33;2.42;;;0.80;;
2996;SDS011;1508;48.744;9.110;2022-10-22T02:33:27;2.33;;;0.80;;
2996;SDS011;1508;48.744;9.110;2022-10-22T02:36:17;2.20;;;0.70;;
2996;SDS011;1508;48.744;9.110;2022-10-22T02:39:04;1.70;;;0.80;;
2996;SDS011;1508;48.744;9.110;2022-10-22T02:41:52;1.83;;;0.80;;
2996;SDS011;1508;48.744;9.110;2022-10-22T02:44:37;1.92;;;0.70;;
2996;SDS011;1508;48.744;9.110;2022-10-22T02:47:23;1.50;;;0.80;;
2996;SDS011;1508;48.744;9.110;2022-10-22T02:50:09;1.75;;;0.80;;
2996;SDS011;1508;48.744;9.110;2022-10-22T02:52:55;1.30;;;0.80;;
2996;SDS011;1508;48.744;9.110;2022-10-22T02:55:41;1.40;;;0.90;;
2996;SDS011;1508;48.744;9.110;2022-10-22T02:58:27;1.95;;;0.80;;
2996;SDS011;1508;48.744;9.110;2022-10-22T03:01:13;1.73;;;0.90;;
2996;SDS011;1508;48.744;9.110;2022-10-22T03:03:59;2.20;;;0.90;;
2996;SDS011;1508;48.744;9.110;2022-10-22T03:06:44;4.30;;;1.00;;
2996;SDS011;1508;48.744;9.110;2022-10-22T03:09:30;1.73;;;0.80;;
2996;SDS011;1508;48.744;9.110;2022-10-22T03:12:16;1.40;;;0.90;;
2996;SDS011;1508;48.744;9.110;2022-10-22T03:15:02;2.22;;;1.00;;
2996;SDS011;1508;48.744;9.110;2022-10-22T03:17:48;2.88;;;0.80;;
2996;SDS011;1508;48.744;9.110;2022-10-22T03:20:34;1.80;;;0.80;;
2996;SDS011;1508;48.744;9.110;2022-10-22T03:23:20;2.05;;;0.80;;
2996;SDS011;1508;48.744;9.110;2022-10-22T03:26:05;2.17;;;0.90;;
2996;SDS011;1508;48.744;9.110;2022-10-22T03:28:52;2.60;;;0.90;;
2996;SDS011;1508;48.744;9.110;2022-10-22T03:31:39;2.60;;;0.80;;
2996;SDS011;1508;48.744;9.110;2022-10-22T03:34:24;1.88;;;0.90;;
2996;SDS011;1508;48.744;9.110;2022-10-22T03:37:10;2.17;;;0.90;;
2996;SDS011;1508;48.744;9.110;2022-10-22T03:39:56;1.48;;;0.90;;
2996;SDS011;1508;48.744;9.110;2022-10-22T03:42:42;2.03;;;0.88;;
2996;SDS011;1508;48.744;9.110;2022-10-22T03:45:28;2.83;;;0.82;;
2996;SDS011;1508;48.744;9.110;2022-10-22T03:48:14;3.20;;;0.98;;
2996;SDS011;1508;48.744;9.110;2022-10-22T03:51:00;1.73;;;0.90;;
2996;SDS011;1508;48.744;9.110;2022-10-22T03:53:46;2.90;;;1.20;;
2996;SDS011;1508;48.744;9.110;2022-10-22T03:56:32;1.50;;;0.80;;
2996;SDS011;1508;48.744;9.110;2022-10-22T03:59:18;1.90;;;1.08;;
2996;SDS011;1508;48.744;9.110;2022-10-22T04:02:04;1.67;;;0.90;;
2996;SDS011;1508;48.744;9.110;2022-10-22T04:04:50;1.30;;;0.80;;
2996;SDS011;1508;48.744;9.110;2022-10-22T04:07:35;2.20;;;0.80;;
2996;SDS011;1508;48.744;9.110;2022-10-22T04:10:21;2.60;;;0.90;;
2996;SDS011;1508;48.744;9.110;2022-10-22T04:13:07;2.20;;;0.80;;
2996;SDS011;1508;48.744;9.110;2022-10-22T04:15:53;1.75;;;0.80;;
2996;SDS011;1508;48.744;9.110;2022-10-22T04:18:39;2.08;;;0.90;;
2996;SDS011;1508;48.744;9.110;2022-10-22T04:21:25;1.70;;;0.85;;
2996;SDS011;1508;48.744;9.110;2022-10-22T04:24:11;1.40;;;0.77;;
2996;SDS011;1508;48.744;9.110;2022-10-22T04:26:57;1.25;;;0.70;;
2996;SDS011;1508;48.744;9.110;2022-10-22T04:29:43;3.63;;;0.90;;
2996;SDS011;1508;48.744;9.110;2022-10-22T04:32:29;1.80;;;0.80;;
2996;SDS011;1508;48.744;9.110;2022-10-22T04:35:15;1.30;;;0.82;;
2996;SDS011;1508;48.744;9.110;2022-10-22T04:38:00;2.65;;;0.80;;
2996;SDS011;1508;48.744;9.110;2022-10-22T04:40:46;1.55;;;0.80;;
2996;SDS011;1508;48.744;9.110;2022-10-22T04:43:32;3.97;;;1.00;;
2996;SDS011;1508;48.744;9.110;2022-10-22T04:46:18;2.05;;;0.80;;
2996;SDS011;1508;48.744;9.110;2022-10-22T04:49:04;1.83;;;0.90;;
2996;SDS011;1508;48.744;9.110;2022-10-22T04:51:50;2.47;;;0.90;;
2996;SDS011;1508;48.744;9.110;2022-10-22T04:54:36;1.30;;;0.80;;
2996;SDS011;1508;48.744;9.110;2022-10-22T04:57:22;1.67;;;0.80;;
2996;SDS011;1508;48.744;9.110;2022-10-22T05:00:08;3.20;;;1.00;;
2996;SDS011;1508;48.744;9.110;2022-10-22T05:02:54;2.53;;;0.90;;
2996;SDS011;1508;48.744;9.110;2022-10-22T05:05:40;2.00;;;0.90;;
2996;SDS011;1508;48.744;9.110;2022-10-22T05:08:26;5.60;;;1.10;;
2996;SDS011;1508;48.744;9.110;2022-10-22T05:11:15;1.30;;;0.70;;
2996;SDS011;1508;48.744;9.110;2022-10-22T05:14:03;1.48;;;0.90;;
2996;SDS011;1508;48.744;9.110;2022-10-22T05:16:50;3.30;;;0.80;;
2996;SDS011;1508;48.744;9.110;2022-10-22T05:19:36;2.20;;;0.90;;
2996;SDS011;1508;48.744;9.110;2022-10-22T05:22:22;3.38;;;0.90;;
2996;SDS011;1508;48.744;9.110;2022-10-22T05:25:08;2.65;;;0.90;;
2996;SDS011;1508;48.744;9.110;2022-10-22T05:27:54;2.17;;;0.70;;
2996;SDS011;1508;48.744;9.110;2022-10-22T05:30:40;2.13;;;0.90;;
2996;SDS011;1508;48.744;9.110;2022-10-22T05:33:26;1.80;;;0.90;;
2996;SDS011;1508;48.744;9.110;2022-10-22T05:36:22;1.75;;;0.90;;
2996;SDS011;1508;48.744;9.110;2022-10-22T05:39:08;1.45;;;0.98;;
2996;SDS011;1508;48.744;9.110;2022-10-22T05:41:53;1.20;;;0.80;;
2996;SDS011;1508;48.744;9.110;2022-10-22T05:44:39;1.98;;;0.82;;
2996;SDS011;1508;48.744;9.110;2022-10-22T05:47:25;2.72;;;0.82;;
2996;SDS011;1508;48.744;9.110;2022-10-22T05:50:13;1.58;;;0.90;;
2996;SDS011;1508;48.744;9.110;2022-10-22T05:52:59;1.85;;;0.80;;
2996;SDS011;1508;48.744;9.110;2022-10-22T05:55:45;1.40;;;0.80;;
2996;SDS011;1508;48.744;9.110;2022-10-22T05:58:31;1.47;;;0.80;;
2996;SDS011;1508;48.744;9.110;2022-10-22T06:01:18;2.10;;;0.90;;
2996;SDS011;1508;48.744;9.110;2022-10-22T06:04:07;1.40;;;0.80;;
2996;SDS011;1508;48.744;9.110;2022-10-22T06:06:55;3.58;;;0.93;;
2996;SDS011;1508;48.744;9.110;2022-10-22T06:09:41;2.50;;;0.90;;
2996;SDS011;1508;48.744;9.110;2022-10-22T06:12:27;2.28;;;0.90;;
2996;SDS011;1508;48.744;9.110;2022-10-22T06:15:14;3.53;;;1.00;;
2996;SDS011;1508;48.744;9.110;2022-10-22T06:18:01;1.27;;;0.80;;
2996;SDS011;1508;48.744;9.110;2022-10-22T06:20:47;2.40;;;0.80;;
2996;SDS011;1508;48.744;9.110;2022-10-22T06:23:33;1.60;;;0.90;;
2996;SDS011;1508;48.744;9.110;2022-10-22T06:26:19;2.90;;;1.00;;
2996;SDS011;1508;48.744;9.110;2022-10-22T06:29:06;2.60;;;0.80;;
2996;SDS011;1508;48.744;9.110;2022-10-22T06:31:52;3.30;;;0.80;;
2996;SDS011;1508;48.744;9.110;2022-10-22T06:34:38;2.15;;;0.77;;
2996;SDS011;1508;48.744;9.110;2022-10-22T06:37:23;1.73;;;0.80;;
2996;SDS011;1508;48.744;9.110;2022-10-22T06:40:09;1.30;;;0.80;;
2996;SDS011;1508;48.744;9.110;2022-10-22T06:42:57;3.60;;;0.90;;
2996;SDS011;1508;48.744;9.110;2022-10-22T06:45:46;2.22;;;0.80;;
2996;SDS011;1508;48.744;9.110;2022-10-22T06:48:32;2.90;;;0.90;;
2996;SDS011;1508;48.744;9.110;2022-10-22T06:51:18;2.90;;;0.90;;
2996;SDS011;1508;48.744;9.110;2022-10-22T06:54:04;2.90;;;0.90;;
2996;SDS011;1508;48.744;9.110;2022-10-22T06:56:50;1.35;;;0.90;;
2996;SDS011;1508;48.744;9.110;2022-10-22T06:59:36;2.10;;;0.90;;
2996;SDS011;1508;48.744;9.110;2022-10-22T07:02:22;1.60;;;0.90;;
2996;SDS011;1508;48.744;9.110;2022-10-22T07:05:07;1.30;;;0.90;;
2996;SDS011;1508;48.744;9.110;2022-10-22T07:07:53;2.00;;;0.80;;
2996;SDS011;1508;48.744;9.110;2022-10-22T07:10:39;1.50;;;0.82;;
2996;SDS011;1508;48.744;9.110;2022-10-22T07:13:25;1.80;;;0.80;;
2996;SDS011;1508;48.744;9.110;2022-10-22T07:16:11;1.30;;;0.90;;
2996;SDS011;1508;48.744;9.110;2022-10-22T07:18:58;1.90;;;0.80;;
2996;SDS011;1508;48.744;9.110;2022-10-22T07:21:45;3.00;;;0.90;;
2996;SDS011;1508;48.744;9.110;2022-10-22T07:24:31;1.40;;;0.90;;
2996;SDS011;1508;48.744;9.110;2022-10-22T07:27:16;2.20;;;0.80;;
2996;SDS011;1508;48.744;9.110;2022-10-22T07:30:02;2.80;;;0.90;;
2996;SDS011;1508;48.744;9.110;2022-10-22T07:32:49;5.03;;;1.00;;
2996;SDS011;1508;48.744;9.110;2022-10-22T07:35:35;4.00;;;1.00;;
2996;SDS011;1508;48.744;9.110;2022-10-22T07:38:22;3.10;;;0.98;;
2996;SDS011;1508;48.744;9.110;2022-10-22T07:41:08;3.40;;;1.00;;
2996;SDS011;1508;48.744;9.110;2022-10-22T07:43:54;1.60;;;0.90;;
2996;SDS011;1508;48.744;9.110;2022-10-22T07:46:41;1.50;;;1.00;;
2996;SDS011;1508;48.744;9.110;2022-10-22T07:49:26;2.90;;;1.10;;
2996;SDS011;1508;48.744;9.110;2022-10-22T07:52:12;1.87;;;1.10;;
2996;SDS011;1508;48.744;9.110;2022-10-22T07:54:58;2.60;;;0.90;;
2996;SDS011;1508;48.744;9.110;2022-10-22T07:57:44;4.10;;;1.30;;
2996;SDS011;1508;48.744;9.110;2022-10-22T08:00:30;4.40;;;1.20;;
2996;SDS011;1508;48.744;9.110;2022-10-22T08:03:16;2.53;;;1.10;;
2996;SDS011;1508;48.744;9.110;2022-10-22T08:06:02;3.42;;;0.93;;
2996;SDS011;1508;48.744;9.110;2022-10-22T08:08:49;3.80;;;1.00;;
2996;SDS011;1508;48.744;9.110;2022-10-22T08:11:34;2.00;;;1.10;;
2996;SDS011;1508;48.744;9.110;2022-10-22T08:14:20;3.43;;;1.20;;
2996;SDS011;1508;48.744;9.110;2022-10-22T08:17:06;3.00;;;1.10;;
2996;SDS011;1508;48.744;9.110;2022-10-22T08:19:52;3.38;;;1.40;;
2996;SDS011;1508;48.744;9.110;2022-10-22T08:22:38;2.15;;;1.10;;
2996;SDS011;1508;48.744;9.110;2022-10-22T08:25:24;3.20;;;1.13;;
2996;SDS011;1508;48.744;9.110;2022-10-22T08:28:10;2.03;;;1.10;;
2996;SDS011;1508;48.744;9.110;2022-10-22T08:30:56;2.92;;;1.40;;
2996;SDS011;1508;48.744;9.110;2022-10-22T08:33:42;4.10;;;1.20;;
2996;SDS011;1508;48.744;9.110;2022-10-22T08:36:27;3.20;;;1.20;;
2996;SDS011;1508;48.744;9.110;2022-10-22T08:39:13;1.75;;;1.10;;
2996;SDS011;1508;48.744;9.110;2022-10-22T08:42:04;2.53;;;1.00;;
2996;SDS011;1508;48.744;9.110;2022-10-22T08:45:19;1.80;;;1.20;;
2996;SDS011;1508;48.744;9.110;2022-10-22T08:51:14;2.58;;;1.10;;
2996;SDS011;1508;48.744;9.110;2022-10-22T09:00:21;1.80;;;1.00;;
2996;SDS011;1508;48.744;9.110;2022-10-22T09:04:16;5.90;;;1.10;;
2996;SDS011;1508;48.744;9.110;2022-10-22T09:06:40;2.70;;;1.00;;
2996;SDS011;1508;48.744;9.110;2022-10-22T09:09:28;2.50;;;1.05;;
2996;SDS011;1508;48.744;9.110;2022-10-22T09:12:18;1.52;;;1.00;;
2996;SDS011;1508;48.744;9.110;2022-10-22T09:15:12;3.08;;;0.85;;
2996;SDS011;1508;48.744;9.110;2022-10-22T09:18:02;2.13;;;0.90;;
2996;SDS011;1508;48.744;9.110;2022-10-22T09:21:01;1.20;;;0.80;;
2996;SDS011;1508;48.744;9.110;2022-10-22T09:26:45;4.38;;;1.10;;
2996;SDS011;1508;48.744;9.110;2022-10-22T09:29:31;2.50;;;1.00;;
2996;SDS011;1508;48.744;9.110;2022-10-22T09:32:18;1.30;;;0.80;;
2996;SDS011;1508;48.744;9.110;2022-10-22T09:35:04;2.50;;;0.90;;
2996;SDS011;1508;48.744;9.110;2022-10-22T09:37:55;2.97;;;1.10;;
2996;SDS011;1508;48.744;9.110;2022-10-22T09:40:42;2.40;;;0.90;;
2996;SDS011;1508;48.744;9.110;2022-10-22T09:43:36;1.60;;;1.00;;
2996;SDS011;1508;48.744;9.110;2022-10-22T09:46:23;2.90;;;1.00;;
2996;SDS011;1508;48.744;9.110;2022-10-22T09:49:13;2.90;;;0.98;;
2996;SDS011;1508;48.744;9.110;2022-10-22T09:52:01;2.10;;;1.00;;
2996;SDS011;1508;48.744;9.110;2022-10-22T09:54:47;4.10;;;1.20;;
2996;SDS011;1508;48.744;9.110;2022-10-22T09:57:36;1.70;;;0.90;;
2996;SDS011;1508;48.744;9.110;2022-10-22T10:00:22;3.10;;;1.00;;
2996;SDS011;1508;48.744;9.110;2022-10-22T10:03:14;1.60;;;1.00;;
2996;SDS011;1508;48.744;9.110;2022-10-22T10:06:03;2.20;;;0.90;;
2996;SDS011;1508;48.744;9.110;2022-10-22T10:08:49;2.20;;;1.00;;
2996;SDS011;1508;48.744;9.110;2022-10-22T10:11:36;2.53;;;1.20;;
2996;SDS011;1508;48.744;9.110;2022-10-22T10:14:34;1.30;;;0.75;;
2996;SDS011;1508;48.744;9.110;2022-10-22T10:20:38;3.13;;;1.00;;
2996;SDS011;1508;48.744;9.110;2022-10-22T10:26:44;2.65;;;1.00;;
2996;SDS011;1508;48.744;9.110;2022-10-22T10:36:05;4.00;;;1.10;;
2996;SDS011;1508;48.744;9.110;2022-10-22T10:41:41;2.90;;;1.10;;
2996;SDS011;1508;48.744;9.110;2022-10-22T10:44:43;2.50;;;1.20;;
2996;SDS011;1508;48.744;9.110;2022-10-22T10:51:17;2.28;;;1.10;;
2996;SDS011;1508;48.744;9.110;2022-10-22T10:54:33;3.50;;;1.30;;
2996;SDS011;1508;48.744;9.110;2022-10-22T10:57:50;2.08;;;1.08;;
2996;SDS011;1508;48.744;9.110;2022-10-22T11:00:51;2.55;;;1.05;;
2996;SDS011;1508;48.744;9.110;2022-10-22T11:07:08;3.40;;;1.20;;
2996;SDS011;1508;48.744;9.110;2022-10-22T11:10:03;5.07;;;1.20;;
2996;SDS011;1508;48.744;9.110;2022-10-22T11:13:08;3.80;;;1.10;;
2996;SDS011;1508;48.744;9.110;2022-10-22T11:16:15;2.10;;;1.10;;
2996;SDS011;1508;48.744;9.110;2022-10-22T11:19:26;2.80;;;1.20;;
2996;SDS011;1508;48.744;9.110;2022-10-22T11:22:25;3.95;;;1.00;;
2996;SDS011;1508;48.744;9.110;2022-10-22T11:25:29;2.97;;;1.10;;
2996;SDS011;1508;48.744;9.110;2022-10-22T11:28:20;3.35;;;1.20;;
2996;SDS011;1508;48.744;9.110;2022-10-22T11:31:16;2.00;;;1.10;;
2996;SDS011;1508;48.744;9.110;2022-10-22T11:34:09;3.22;;;1.00;;
2996;SDS011;1508;48.744;9.110;2022-10-22T11:37:00;2.83;;;1.20;;
2996;SDS011;1508;48.744;9.110;2022-10-22T11:39:56;1.60;;;0.80;;
2996;SDS011;1508;48.744;9.110;2022-10-22T11:43:25;3.42;;;1.10;;
2996;SDS011;1508;48.744;9.110;2022-10-22T11:46:03;2.50;;;1.00;;
2996;SDS011;1508;48.744;9.110;2022-10-22T11:51:50;3.00;;;0.90;;
2996;SDS011;1508;48.744;9.110;2022-10-22T11:54:52;4.25;;;1.05;;
2996;SDS011;1508;48.744;9.110;2022-10-22T11:57:39;4.43;;;1.17;;
2996;SDS011;1508;48.744;9.110;2022-10-22T12:00:34;2.50;;;1.08;;
2996;SDS011;1508;48.744;9.110;2022-10-22T12:06:18;3.20;;;0.93;;
2996;SDS011;1508;48.744;9.110;2022-10-22T12:09:08;3.20;;;1.00;;
2996;SDS011;1508;48.744;9.110;2022-10-22T12:12:00;2.55;;;1.00;;
2996;SDS011;1508;48.744;9.110;2022-10-22T12:14:52;2.78;;;1.00;;
2996;SDS011;1508;48.744;9.110;2022-10-22T12:17:42;3.42;;;1.00;;
2996;SDS011;1508;48.744;9.110;2022-10-22T12:20:28;2.92;;;1.10;;
2996;SDS011;1508;48.744;9.110;2022-10-22T12:23:14;4.40;;;1.20;;
2996;SDS011;1508;48.744;9.110;2022-10-22T12:26:01;2.95;;;1.00;;
2996;SDS011;1508;48.744;9.110;2022-10-22T12:28:48;3.85;;;1.10;;
2996;SDS011;1508;48.744;9.110;2022-10-22T12:31:35;3.53;;;1.10;;
2996;SDS011;1508;48.744;9.110;2022-10-22T12:34:23;2.60;;;1.00;;
2996;SDS011;1508;48.744;9.110;2022-10-22T12:37:09;3.25;;;0.90;;
2996;SDS011;1508;48.744;9.110;2022-10-22T12:39:57;2.50;;;1.00;;
2996;SDS011;1508;48.744;9.110;2022-10-22T12:42:49;3.65;;;1.00;;
2996;SDS011;1508;48.744;9.110;2022-10-22T12:45:37;4.43;;;1.10;;
2996;SDS011;1508;48.744;9.110;2022-10-22T12:48:26;4.63;;;1.55;;
2996;SDS011;1508;48.744;9.110;2022-10-22T12:51:16;3.00;;;1.00;;
2996;SDS011;1508;48.744;9.110;2022-10-22T12:57:09;3.00;;;1.00;;
2996;SDS011;1508;48.744;9.110;2022-10-22T12:59:58;4.00;;;1.10;;
2996;SDS011;1508;48.744;9.110;2022-10-22T13:02:44;2.80;;;0.90;;
2996;SDS011;1508;48.744;9.110;2022-10-22T13:05:30;2.95;;;1.10;;
2996;SDS011;1508;48.744;9.110;2022-10-22T13:08:20;4.57;;;0.90;;
2996;SDS011;1508;48.744;9.110;2022-10-22T13:11:08;3.23;;;1.07;;
2996;SDS011;1508;48.744;9.110;2022-10-22T13:14:05;3.90;;;1.00;;
2996;SDS011;1508;48.744;9.110;2022-10-22T13:17:19;3.50;;;1.00;;
2996;SDS011;1508;48.744;9.110;2022-10-22T13:20:22;2.83;;;1.20;;
2996;SDS011;1508;48.744;9.110;2022-10-22T13:23:17;4.07;;;1.17;;
2996;SDS011;1508;48.744;9.110;2022-10-22T13:26:12;4.30;;;1.20;;
2996;SDS011;1508;48.744;9.110;2022-10-22T13:28:59;2.15;;;1.00;;
2996;SDS011;1508;48.744;9.110;2022-10-22T13:31:47;1.92;;;1.00;;
2996;SDS011;1508;48.744;9.110;2022-10-22T13:34:35;2.90;;;1.00;;
2996;SDS011;1508;48.744;9.110;2022-10-22T13:37:21;3.00;;;1.10;;
2996;SDS011;1508;48.744;9.110;2022-10-22T13:40:11;3.80;;;1.20;;
2996;SDS011;1508;48.744;9.110;2022-10-22T13:42:57;3.05;;;1.10;;
2996;SDS011;1508;48.744;9.110;2022-10-22T13:45:43;2.38;;;0.90;;
2996;SDS011;1508;48.744;9.110;2022-10-22T13:48:30;3.20;;;1.10;;
2996;SDS011;1508;48.744;9.110;2022-10-22T13:51:20;5.50;;;1.33;;
2996;SDS011;1508;48.744;9.110;2022-10-22T13:54:15;1.97;;;1.00;;
2996;SDS011;1508;48.744;9.110;2022-10-22T13:57:04;2.30;;;1.00;;
2996;SDS011;1508;48.744;9.110;2022-10-22T13:59:53;4.20;;;1.25;;
2996;SDS011;1508;48.744;9.110;2022-10-22T14:02:39;3.30;;;1.23;;
2996;SDS011;1508;48.744;9.110;2022-10-22T14:05:25;2.65;;;1.20;;
2996;SDS011;1508;48.744;9.110;2022-10-22T14:08:11;2.13;;;0.90;;
2996;SDS011;1508;48.744;9.110;2022-10-22T14:10:59;3.00;;;1.00;;
2996;SDS011;1508;48.744;9.110;2022-10-22T14:13:45;2.85;;;1.10;;
2996;SDS011;1508;48.744;9.110;2022-10-22T14:16:31;2.10;;;1.00;;
2996;SDS011;1508;48.744;9.110;2022-10-22T14:19:17;4.10;;;0.90;;
2996;SDS011;1508;48.744;9.110;2022-10-22T14:22:03;3.20;;;1.10;;
2996;SDS011;1508;48.744;9.110;2022-10-22T14:24:48;2.90;;;1.20;;
2996;SDS011;1508;48.744;9.110;2022-10-22T14:27:34;3.77;;;1.20;;
2996;SDS011;1508;48.744;9.110;2022-10-22T14:30:22;2.93;;;1.10;;
2996;SDS011;1508;48.744;9.110;2022-10-22T14:33:14;2.13;;;1.00;;
2996;SDS011;1508;48.744;9.110;2022-10-22T14:36:06;2.60;;;1.10;;
2996;SDS011;1508;48.744;9.110;2022-10-22T14:38:53;4.55;;;1.20;;
2996;SDS011;1508;48.744;9.110;2022-10-22T14:41:39;2.80;;;1.20;;
2996;SDS011;1508;48.744;9.110;2022-10-22T14:44:25;3.80;;;1.30;;
2996;SDS011;1508;48.744;9.110;2022-10-22T14:47:11;5.50;;;1.30;;
2996;SDS011;1508;48.744;9.110;2022-10-22T14:49:57;5.63;;;1.60;;
2996;SDS011;1508;48.744;9.110;2022-10-22T14:52:43;5.10;;;1.20;;
2996;SDS011;1508;48.744;9.110;2022-10-22T14:55:29;2.47;;;1.20;;
2996;SDS011;1508;48.744;9.110;2022-10-22T14:58:15;2.60;;;1.00;;
2996;SDS011;1508;48.744;9.110;2022-10-22T15:01:01;4.00;;;1.05;;
2996;SDS011;1508;48.744;9.110;2022-10-22T15:03:47;4.43;;;1.02;;
2996;SDS011;1508;48.744;9.110;2022-10-22T15:06:33;3.55;;;1.20;;
2996;SDS011;1508;48.744;9.110;2022-10-22T15:09:19;3.13;;;1.30;;
2996;SDS011;1508;48.744;9.110;2022-10-22T15:12:06;3.42;;;1.20;;
2996;SDS011;1508;48.744;9.110;2022-10-22T15:14:52;3.67;;;1.15;;
2996;SDS011;1508;48.744;9.110;2022-10-22T15:17:38;3.30;;;1.20;;
2996;SDS011;1508;48.744;9.110;2022-10-22T15:20:23;4.32;;;1.30;;
2996;SDS011;1508;48.744;9.110;2022-10-22T15:23:09;3.58;;;1.00;;
2996;SDS011;1508;48.744;9.110;2022-10-22T15:25:55;3.28;;;1.60;;
2996;SDS011;1508;48.744;9.110;2022-10-22T15:28:41;2.42;;;1.10;;
2996;SDS011;1508;48.744;9.110;2022-10-22T15:31:40;5.47;;;1.42;;
2996;SDS011;1508;48.744;9.110;2022-10-22T15:34:32;4.25;;;1.30;;
2996;SDS011;1508;48.744;9.110;2022-10-22T15:37:19;4.60;;;1.40;;
2996;SDS011;1508;48.744;9.110;2022-10-22T15:40:05;3.47;;;1.23;;
2996;SDS011;1508;48.744;9.110;2022-10-22T15:42:51;2.77;;;1.30;;
2996;SDS011;1508;48.744;9.110;2022-10-22T15:45:37;5.10;;;1.50;;
2996;SDS011;1508;48.744;9.110;2022-10-22T15:48:23;5.05;;;1.50;;
2996;SDS011;1508;48.744;9.110;2022-10-22T15:51:13;2.42;;;1.20;;
2996;SDS011;1508;48.744;9.110;2022-10-22T15:54:00;4.10;;;1.20;;
2996;SDS011;1508;48.744;9.110;2022-10-22T15:56:46;4.28;;;1.30;;
2996;SDS011;1508;48.744;9.110;2022-10-22T15:59:33;5.28;;;1.30;;
2996;SDS011;1508;48.744;9.110;2022-10-22T16:02:19;4.75;;;1.30;;
2996;SDS011;1508;48.744;9.110;2022-10-22T16:05:05;3.70;;;1.70;;
2996;SDS011;1508;48.744;9.110;2022-10-22T16:07:51;8.00;;;1.60;;
2996;SDS011;1508;48.744;9.110;2022-10-22T16:10:37;2.50;;;1.23;;
2996;SDS011;1508;48.744;9.110;2022-10-22T16:13:29;3.40;;;1.42;;
2996;SDS011;1508;48.744;9.110;2022-10-22T16:16:15;4.57;;;1.75;;
2996;SDS011;1508;48.744;9.110;2022-10-22T16:19:01;3.60;;;1.80;;
2996;SDS011;1508;48.744;9.110;2022-10-22T16:21:48;5.45;;;2.10;;
2996;SDS011;1508;48.744;9.110;2022-10-22T16:24:34;5.03;;;1.90;;
2996;SDS011;1508;48.744;9.110;2022-10-22T16:27:20;4.50;;;1.90;;
2996;SDS011;1508;48.744;9.110;2022-10-22T16:30:06;4.72;;;2.00;;
2996;SDS011;1508;48.744;9.110;2022-10-22T16:32:52;5.13;;;2.20;;
2996;SDS011;1508;48.744;9.110;2022-10-22T16:35:38;5.15;;;2.10;;
2996;SDS011;1508;48.744;9.110;2022-10-22T16:38:25;4.50;;;2.00;;
2996;SDS011;1508;48.744;9.110;2022-10-22T16:41:12;5.35;;;2.00;;
2996;SDS011;1508;48.744;9.110;2022-10-22T16:44:01;6.35;;;2.05;;
2996;SDS011;1508;48.744;9.110;2022-10-22T16:46:49;5.30;;;2.17;;
2996;SDS011;1508;48.744;9.110;2022-10-22T16:49:35;4.95;;;2.22;;
2996;SDS011;1508;48.744;9.110;2022-10-22T16:52:21;6.30;;;1.95;;
2996;SDS011;1508;48.744;9.110;2022-10-22T16:55:07;3.63;;;1.83;;
2996;SDS011;1508;48.744;9.110;2022-10-22T16:57:53;7.50;;;2.20;;
2996;SDS011;1508;48.744;9.110;2022-10-22T17:00:39;5.55;;;2.30;;
2996;SDS011;1508;48.744;9.110;2022-10-22T17:03:24;5.20;;;2.63;;
2996;SDS011;1508;48.744;9.110;2022-10-22T17:06:10;7.20;;;3.20;;
2996;SDS011;1508;48.744;9.110;2022-10-22T17:08:56;8.05;;;3.40;;
2996;SDS011;1508;48.744;9.110;2022-10-22T17:11:42;7.88;;;3.83;;
2996;SDS011;1508;48.744;9.110;2022-10-22T17:14:28;7.28;;;3.35;;
2996;SDS011;1508;48.744;9.110;2022-10-22T17:17:14;5.70;;;3.53;;
2996;SDS011;1508;48.744;9.110;2022-10-22T17:20:00;6.32;;;2.70;;
2996;SDS011;1508;48.744;9.110;2022-10-22T17:22:46;5.68;;;3.03;;
2996;SDS011;1508;48.744;9.110;2022-10-22T17:25:36;6.47;;;3.75;;
2996;SDS011;1508;48.744;9.110;2022-10-22T17:28:27;8.25;;;3.97;;
2996;SDS011;1508;48.744;9.110;2022-10-22T17:31:15;7.65;;;3.35;;
2996;SDS011;1508;48.744;9.110;2022-10-22T17:34:07;7.20;;;3.38;;
2996;SDS011;1508;48.744;9.110;2022-10-22T17:36:59;8.90;;;3.58;;
2996;SDS011;1508;48.744;9.110;2022-10-22T17:39:45;11.00;;;3.80;;
2996;SDS011;1508;48.744;9.110;2022-10-22T17:42:31;9.38;;;4.10;;
2996;SDS011;1508;48.744;9.110;2022-10-22T17:45:18;5.40;;;3.35;;
2996;SDS011;1508;48.744;9.110;2022-10-22T17:48:04;4.47;;;2.20;;
2996;SDS011;1508;48.744;9.110;2022-10-22T17:50:50;6.57;;;2.60;;
2996;SDS011;1508;48.744;9.110;2022-10-22T17:53:38;6.53;;;2.35;;
2996;SDS011;1508;48.744;9.110;2022-10-22T17:56:28;6.05;;;2.60;;
2996;SDS011;1508;48.744;9.110;2022-10-22T17:59:15;6.53;;;2.55;;
2996;SDS011;1508;48.744;9.110;2022-10-22T18:02:01;6.20;;;2.40;;
2996;SDS011;1508;48.744;9.110;2022-10-22T18:04:50;5.80;;;2.60;;
2996;SDS011;1508;48.744;9.110;2022-10-22T18:07:36;5.90;;;2.50;;
2996;SDS011;1508;48.744;9.110;2022-10-22T18:10:22;5.25;;;2.60;;
2996;SDS011;1508;48.744;9.110;2022-10-22T18:13:08;7.13;;;2.90;;
2996;SDS011;1508;48.744;9.110;2022-10-22T18:15:54;5.30;;;3.50;;
2996;SDS011;1508;48.744;9.110;2022-10-22T18:18:43;7.97;;;3.08;;
2996;SDS011;1508;48.744;9.110;2022-10-22T18:21:30;8.70;;;3.60;;
2996;SDS011;1508;48.744;9.110;2022-10-22T18:24:16;5.45;;;3.10;;
2996;SDS011;1508;48.744;9.110;2022-10-22T18:27:02;6.63;;;3.70;;
2996;SDS011;1508;48.744;9.110;2022-10-22T18:29:49;10.43;;;4.10;;
2996;SDS011;1508;48.744;9.110;2022-10-22T18:32:35;4.80;;;2.90;;
2996;SDS011;1508;48.744;9.110;2022-10-22T18:35:20;7.93;;;3.50;;
2996;SDS011;1508;48.744;9.110;2022-10-22T18:38:07;10.02;;;3.30;;
2996;SDS011;1508;48.744;9.110;2022-10-22T18:40:53;6.50;;;3.00;;